createdAt,value
2023-03-10T00:01:44.031Z,3.97
2023-03-10T00:04:10.346Z,3.98
2023-03-10T00:06:36.654Z,3.96
2023-03-10T00:09:03.108Z,3.95
2023-03-10T00:11:29.461Z,3.94
2023-03-10T00:13:55.808Z,3.92
2023-03-10T00:16:24.173Z,3.90
2023-03-10T00:18:50.585Z,3.88
2023-03-10T00:21:18.635Z,3.85
2023-03-10T00:23:45.068Z,3.83
2023-03-10T00:26:12.872Z,3.80
2023-03-10T00:28:39.608Z,3.79
2023-03-10T00:31:13.143Z,3.77
2023-03-10T00:33:39.714Z,3.74
2023-03-10T00:36:13.553Z,3.72
2023-03-10T00:38:40.598Z,3.70
2023-03-10T00:41:08.296Z,3.72
2023-03-10T00:43:34.649Z,3.72
2023-03-10T00:46:01.660Z,3.72
2023-03-10T00:48:28.303Z,3.71
2023-03-10T00:50:56.093Z,3.70
2023-03-10T00:53:22.443Z,3.69
2023-03-10T00:55:58.919Z,3.68
2023-03-10T00:58:25.513Z,3.70
2023-03-10T01:00:51.871Z,3.72
2023-03-10T01:03:18.182Z,3.73
2023-03-10T01:05:44.486Z,3.75
2023-03-10T01:08:10.795Z,3.77
2023-03-10T01:10:37.108Z,3.78
2023-03-10T01:13:03.607Z,3.79
2023-03-10T01:15:29.975Z,3.80
2023-03-10T01:17:56.364Z,3.80
2023-03-10T01:20:22.706Z,3.82
2023-03-10T01:22:49.035Z,3.84
2023-03-10T01:25:15.414Z,3.86
2023-03-10T01:27:42.012Z,3.87
2023-03-10T01:30:09.391Z,3.88
2023-03-10T01:32:36.034Z,3.89
2023-03-10T01:35:02.998Z,3.92
2023-03-10T01:37:30.760Z,3.96
2023-03-10T01:39:57.092Z,4.02
2023-03-10T01:42:23.502Z,4.08
2023-03-10T01:45:10.278Z,4.10
2023-03-10T01:47:36.589Z,4.11
2023-03-10T01:50:04.396Z,4.10
2023-03-10T01:52:32.804Z,4.10
2023-03-10T01:55:11.108Z,4.10
2023-03-10T01:57:41.094Z,4.11
2023-03-10T02:00:08.263Z,4.13
2023-03-10T02:02:46.993Z,4.15
2023-03-10T02:05:14.087Z,4.18
2023-03-10T02:07:41.467Z,4.19
2023-03-10T02:10:09.394Z,4.20
2023-03-10T02:12:35.737Z,4.23
2023-03-10T02:15:02.245Z,4.25
2023-03-10T02:17:30.368Z,4.26
2023-03-10T02:20:08.955Z,4.27
2023-03-10T02:22:37.069Z,4.26
2023-03-10T02:25:20.132Z,4.25
2023-03-10T02:27:46.607Z,4.25
2023-03-10T02:30:12.896Z,4.29
2023-03-10T02:32:42.410Z,4.31
2023-03-10T02:35:09.436Z,4.29
2023-03-10T02:37:40.764Z,4.26
2023-03-10T02:40:22.618Z,4.25
2023-03-10T02:42:49.060Z,4.26
2023-03-10T02:45:15.747Z,4.27
2023-03-10T02:47:42.042Z,4.30
2023-03-10T02:50:09.934Z,4.30
2023-03-10T02:52:43.989Z,4.30
2023-03-10T02:55:14.777Z,4.31
2023-03-10T02:57:41.227Z,4.30
2023-03-10T03:00:07.978Z,4.32
2023-03-10T03:02:34.389Z,4.34
2023-03-10T03:05:00.765Z,4.37
2023-03-10T03:07:27.481Z,4.38
2023-03-10T03:09:53.965Z,4.37
2023-03-10T03:12:20.277Z,4.36
2023-03-10T03:14:46.628Z,4.36
2023-03-10T03:17:13.158Z,4.34
2023-03-10T03:19:39.892Z,4.32
2023-03-10T03:22:06.190Z,4.34
2023-03-10T03:24:32.589Z,4.33
2023-03-10T03:26:58.956Z,4.31
2023-03-10T03:29:26.777Z,4.30
2023-03-10T03:31:53.336Z,4.28
2023-03-10T03:34:23.033Z,4.28
2023-03-10T03:36:51.791Z,4.27
2023-03-10T03:39:21.985Z,4.24
2023-03-10T03:41:51.444Z,4.23
2023-03-10T03:44:18.141Z,4.22
2023-03-10T03:46:44.546Z,4.21
2023-03-10T03:49:10.931Z,4.20
2023-03-10T03:51:37.427Z,4.16
2023-03-10T03:54:04.228Z,4.15
2023-03-10T03:56:32.741Z,4.14
2023-03-10T03:59:00.152Z,4.16
2023-03-10T04:01:26.882Z,4.16
2023-03-10T04:03:54.470Z,4.13
2023-03-10T04:06:21.412Z,4.11
2023-03-10T04:08:50.926Z,4.09
2023-03-10T04:11:17.964Z,4.07
2023-03-10T04:13:46.939Z,4.03
2023-03-10T04:16:13.690Z,3.98
2023-03-10T04:18:40.318Z,3.93
2023-03-10T04:21:07.341Z,3.88
2023-03-10T04:23:34.119Z,3.81
2023-03-10T04:26:00.749Z,3.77
2023-03-10T04:28:28.448Z,3.72
2023-03-10T04:30:55.169Z,3.68
2023-03-10T04:33:23.067Z,3.63
2023-03-10T04:35:49.957Z,3.59
2023-03-10T04:38:16.868Z,3.57
2023-03-10T04:40:44.162Z,3.54
2023-03-10T04:43:10.870Z,3.53
2023-03-10T04:45:37.690Z,3.51
2023-03-10T04:48:04.142Z,3.49
2023-03-10T04:50:30.493Z,3.46
2023-03-10T04:52:57.373Z,3.43
2023-03-10T04:55:26.310Z,3.41
2023-03-10T04:57:52.819Z,3.39
2023-03-10T05:00:19.231Z,3.37
2023-03-10T05:02:46.130Z,3.36
2023-03-10T05:05:12.959Z,3.36
2023-03-10T05:07:41.150Z,3.39
2023-03-10T05:10:08.298Z,3.43
2023-03-10T05:12:36.507Z,3.45
2023-03-10T05:15:02.918Z,3.45
2023-03-10T05:17:29.413Z,3.44
2023-03-10T05:19:59.329Z,3.44
2023-03-10T05:22:26.040Z,3.45
2023-03-10T05:24:52.459Z,3.46
2023-03-10T05:27:18.854Z,3.50
2023-03-10T05:29:45.318Z,3.55
2023-03-10T05:32:17.572Z,3.61
2023-03-10T05:34:45.767Z,3.67
2023-03-10T05:37:12.326Z,3.73
2023-03-10T05:39:38.973Z,3.79
2023-03-10T05:42:09.467Z,3.86
2023-03-10T05:44:36.113Z,3.93
2023-03-10T05:47:04.507Z,3.98
2023-03-10T05:49:31.018Z,4.02
2023-03-10T05:51:57.917Z,4.05
2023-03-10T05:54:24.646Z,4.09
2023-03-10T05:56:51.284Z,4.13
2023-03-10T05:59:19.656Z,4.20
2023-03-10T06:01:45.965Z,4.27
2023-03-10T06:04:12.289Z,4.34
2023-03-10T06:06:38.612Z,4.42
2023-03-10T06:09:04.941Z,4.53
2023-03-10T06:11:31.375Z,4.67
2023-03-10T06:13:57.633Z,4.81
2023-03-10T06:16:24.113Z,4.96
2023-03-10T06:18:53.996Z,5.10
2023-03-10T06:21:20.492Z,5.26
2023-03-10T06:23:46.912Z,5.43
2023-03-10T06:26:14.510Z,5.60
2023-03-10T06:28:42.209Z,5.78
2023-03-10T06:31:12.204Z,5.97
2023-03-10T06:33:39.041Z,6.16
2023-03-10T06:36:05.553Z,6.34
2023-03-10T06:38:32.002Z,6.49
2023-03-10T06:40:58.335Z,6.60
2023-03-10T06:43:25.025Z,6.64
2023-03-10T06:45:51.435Z,6.67
2023-03-10T06:48:17.845Z,6.65
2023-03-10T06:50:47.224Z,6.64
2023-03-10T06:53:14.028Z,6.62
2023-03-10T06:55:40.297Z,6.58
2023-03-10T06:58:06.631Z,6.57
2023-03-10T07:00:32.958Z,6.60
2023-03-10T07:02:59.312Z,6.64
2023-03-10T07:05:25.824Z,6.72
2023-03-10T07:07:53.126Z,6.82
2023-03-10T07:10:20.493Z,6.93
2023-03-10T07:12:46.918Z,7.02
2023-03-10T07:15:13.216Z,7.11
2023-03-10T07:17:39.488Z,7.25
2023-03-10T07:20:06.547Z,7.45
2023-03-10T07:22:32.817Z,7.67
2023-03-10T07:24:59.213Z,7.88
2023-03-10T07:27:25.552Z,8.11
2023-03-10T07:29:51.824Z,8.31
2023-03-10T07:32:18.149Z,8.53
2023-03-10T07:34:44.585Z,8.67
2023-03-10T07:37:10.862Z,8.75
2023-03-10T07:39:37.185Z,8.79
2023-03-10T07:42:03.530Z,8.80
2023-03-10T07:44:31.820Z,8.86
2023-03-10T07:46:58.122Z,8.87
2023-03-10T07:49:24.553Z,8.91
2023-03-10T07:51:51.010Z,8.97
2023-03-10T07:54:17.377Z,9.06
2023-03-10T07:56:43.700Z,9.19
2023-03-10T07:59:10.120Z,9.34
2023-03-10T08:01:37.010Z,9.52
2023-03-10T08:04:03.617Z,9.71
2023-03-10T08:06:30.124Z,9.86
2023-03-10T08:08:56.429Z,10.01
2023-03-10T08:11:22.744Z,10.19
2023-03-10T08:13:49.752Z,10.40
2023-03-10T08:16:17.591Z,10.59
2023-03-10T08:18:43.913Z,10.68
2023-03-10T08:21:10.711Z,10.74
2023-03-10T08:23:37.138Z,10.76
2023-03-10T08:26:05.381Z,10.74
2023-03-10T08:28:32.259Z,10.78
2023-03-10T08:31:04.897Z,10.86
2023-03-10T08:33:31.958Z,10.94
2023-03-10T08:36:13.153Z,11.01
2023-03-10T08:38:40.170Z,11.06
2023-03-10T08:41:20.643Z,11.08
2023-03-10T08:43:49.261Z,11.12
2023-03-10T08:46:16.517Z,11.15
2023-03-10T08:48:43.193Z,11.20
2023-03-10T08:51:10.084Z,11.30
2023-03-10T08:53:37.335Z,11.35
2023-03-10T08:56:04.296Z,11.41
2023-03-10T08:58:31.038Z,11.45
2023-03-10T09:00:57.545Z,11.50
2023-03-10T09:03:24.082Z,11.53
2023-03-10T09:05:51.080Z,11.56
2023-03-10T09:08:17.638Z,11.59
2023-03-10T09:10:44.452Z,11.62
2023-03-10T09:13:14.282Z,11.63
2023-03-10T09:15:41.451Z,11.68
2023-03-10T09:18:08.526Z,11.76
2023-03-10T09:20:35.695Z,11.88
2023-03-10T09:23:02.688Z,12.02
2023-03-10T09:25:29.197Z,12.15
2023-03-10T09:27:55.576Z,12.28
2023-03-10T09:30:21.993Z,12.45
2023-03-10T09:32:48.693Z,12.60
2023-03-10T09:35:15.198Z,12.71
2023-03-10T09:37:41.559Z,12.82
2023-03-10T09:40:11.425Z,12.90
2023-03-10T09:42:44.460Z,13.01
2023-03-10T09:45:21.023Z,13.17
2023-03-10T09:47:52.525Z,13.31
2023-03-10T09:50:23.042Z,13.49
2023-03-10T09:53:25.061Z,13.63
2023-03-10T09:55:51.446Z,13.87
2023-03-10T09:58:38.074Z,14.09
2023-03-10T10:01:05.819Z,14.33
2023-03-10T10:03:52.120Z,14.52
2023-03-10T10:06:39.722Z,14.74
2023-03-10T10:09:14.188Z,14.89
2023-03-10T10:11:40.581Z,14.91
2023-03-10T10:14:15.907Z,14.91
2023-03-10T10:16:45.168Z,14.88
2023-03-10T10:19:25.299Z,14.85
2023-03-10T10:22:02.070Z,14.84
2023-03-10T10:24:28.613Z,14.99
2023-03-10T10:26:54.939Z,15.25
2023-03-10T10:29:22.509Z,15.55
2023-03-10T10:32:01.479Z,15.88
2023-03-10T10:34:27.924Z,16.21
2023-03-10T10:36:55.435Z,16.61
2023-03-10T10:39:31.227Z,17.04
2023-03-10T10:42:13.063Z,17.56
2023-03-10T10:44:42.879Z,17.79
2023-03-10T10:47:35.855Z,17.69
2023-03-10T10:50:22.095Z,17.84
2023-03-10T10:52:49.897Z,18.34
2023-03-10T10:55:27.150Z,18.94
2023-03-10T10:57:54.848Z,19.67
2023-03-10T11:00:27.377Z,20.14
2023-03-10T11:02:54.157Z,20.42
2023-03-10T11:05:20.576Z,20.59
2023-03-10T11:07:47.098Z,20.97
2023-03-10T11:10:16.647Z,21.30
2023-03-10T11:12:46.102Z,21.74
2023-03-10T11:15:22.415Z,22.38
2023-03-10T11:17:54.677Z,22.98
2023-03-10T11:20:27.036Z,23.33
2023-03-10T11:23:03.820Z,23.63
2023-03-10T11:25:49.663Z,23.84
2023-03-10T11:28:15.992Z,23.89
2023-03-10T11:30:53.546Z,24.36
2023-03-10T11:33:27.424Z,25.01
2023-03-10T11:35:58.043Z,25.47
2023-03-10T11:38:32.253Z,25.91
2023-03-10T11:41:03.801Z,25.94
2023-03-10T11:43:44.225Z,26.16
2023-03-10T11:46:30.920Z,26.40
2023-03-10T11:49:06.052Z,26.58
2023-03-10T11:51:35.581Z,26.87
2023-03-10T11:54:13.955Z,26.65
2023-03-10T11:56:40.923Z,25.94
2023-03-10T11:59:16.932Z,24.81
2023-03-10T12:01:46.397Z,23.39
2023-03-10T12:04:19.582Z,21.98
2023-03-10T12:06:45.893Z,20.72
2023-03-10T12:09:16.361Z,19.79
2023-03-10T12:11:42.752Z,18.92
2023-03-10T12:14:11.785Z,18.16
2023-03-10T12:16:39.055Z,17.45
2023-03-10T12:19:05.536Z,16.87
2023-03-10T12:21:32.352Z,16.38
2023-03-10T12:24:00.534Z,15.93
2023-03-10T12:26:37.130Z,15.49
2023-03-10T12:29:15.931Z,15.07
2023-03-10T12:31:46.411Z,14.48
2023-03-10T12:34:23.120Z,13.91
2023-03-10T12:37:08.964Z,13.42
2023-03-10T12:39:39.739Z,13.09
2023-03-10T12:42:26.260Z,12.85
2023-03-10T12:44:53.059Z,12.68
2023-03-10T12:47:26.006Z,12.56
2023-03-10T12:49:55.106Z,12.44
2023-03-10T12:52:30.684Z,12.32
2023-03-10T12:55:17.458Z,12.20
2023-03-10T12:58:02.633Z,12.07
2023-03-10T13:00:29.613Z,11.94
2023-03-10T13:02:55.935Z,11.86
2023-03-10T13:05:24.563Z,11.77
2023-03-10T13:07:56.394Z,11.72
2023-03-10T13:10:24.405Z,11.67
2023-03-10T13:12:54.018Z,11.66
2023-03-10T13:15:26.122Z,11.69
2023-03-10T13:17:53.397Z,11.81
2023-03-10T13:20:20.631Z,11.98
2023-03-10T13:22:57.114Z,12.08
2023-03-10T13:25:24.316Z,12.13
2023-03-10T13:27:51.004Z,12.09
2023-03-10T13:30:22.174Z,12.08
2023-03-10T13:32:59.144Z,12.10
2023-03-10T13:35:29.888Z,12.10
2023-03-10T13:38:06.245Z,12.14
2023-03-10T13:40:33.550Z,12.22
2023-03-10T13:42:59.913Z,12.32
2023-03-10T13:45:26.234Z,12.43
2023-03-10T13:47:53.905Z,12.49
2023-03-10T13:50:20.564Z,12.51
2023-03-10T13:52:54.388Z,12.49
2023-03-10T13:55:23.120Z,12.45
2023-03-10T13:57:50.044Z,12.40
2023-03-10T14:00:18.211Z,12.36
2023-03-10T14:02:45.955Z,12.30
2023-03-10T14:05:31.241Z,12.28
2023-03-10T14:07:58.687Z,12.23
2023-03-10T14:10:25.115Z,12.21
2023-03-10T14:12:52.475Z,12.32
2023-03-10T14:15:19.388Z,12.52
2023-03-10T14:17:47.094Z,12.72
2023-03-10T14:20:27.628Z,12.94
2023-03-10T14:22:54.128Z,13.14
2023-03-10T14:25:21.257Z,13.36
2023-03-10T14:27:57.896Z,13.47
2023-03-10T14:30:25.766Z,13.47
2023-03-10T14:32:53.083Z,13.45
2023-03-10T14:35:20.416Z,13.44
2023-03-10T14:37:47.505Z,13.41
2023-03-10T14:40:14.085Z,13.40
2023-03-10T14:42:41.109Z,13.41
2023-03-10T14:45:13.825Z,13.42
2023-03-10T14:47:43.070Z,13.39
2023-03-10T14:50:13.618Z,13.36
2023-03-10T14:52:40.013Z,13.31
2023-03-10T14:55:08.182Z,13.28
2023-03-10T14:57:35.242Z,13.29
2023-03-10T15:00:01.546Z,13.30
2023-03-10T15:02:27.957Z,13.35
2023-03-10T15:04:54.319Z,13.38
2023-03-10T15:07:20.748Z,13.38
2023-03-10T15:09:47.177Z,13.34
2023-03-10T15:12:14.925Z,13.31
2023-03-10T15:14:44.148Z,13.26
2023-03-10T15:17:12.159Z,13.24
2023-03-10T15:19:38.639Z,13.25
2023-03-10T15:22:04.951Z,13.25
2023-03-10T15:24:31.385Z,13.28
2023-03-10T15:26:58.502Z,13.30
2023-03-10T15:29:25.346Z,13.33
2023-03-10T15:31:51.667Z,13.35
2023-03-10T15:34:19.644Z,13.37
2023-03-10T15:36:47.030Z,13.40
2023-03-10T15:39:21.998Z,13.41
2023-03-10T15:41:52.002Z,13.40
2023-03-10T15:44:18.320Z,13.37
2023-03-10T15:46:44.700Z,13.36
2023-03-10T15:49:11.166Z,13.31
2023-03-10T15:51:37.977Z,13.21
2023-03-10T15:54:04.492Z,13.12
2023-03-10T15:56:31.955Z,13.02
2023-03-10T15:58:58.448Z,12.91
2023-03-10T16:01:24.845Z,12.77
2023-03-10T16:03:52.429Z,12.69
2023-03-10T16:06:22.986Z,12.57
2023-03-10T16:08:49.381Z,12.51
2023-03-10T16:11:19.690Z,12.44
2023-03-10T16:13:46.504Z,12.36
2023-03-10T16:16:13.880Z,12.28
2023-03-10T16:18:40.293Z,12.15
2023-03-10T16:21:06.611Z,12.05
2023-03-10T16:23:33.061Z,11.97
2023-03-10T16:26:10.150Z,11.88
2023-03-10T16:28:37.833Z,11.77
2023-03-10T16:31:05.161Z,11.66
2023-03-10T16:33:31.950Z,11.57
2023-03-10T16:36:02.538Z,11.48
2023-03-10T16:38:29.093Z,11.37
2023-03-10T16:40:55.664Z,11.27
2023-03-10T16:43:22.031Z,11.18
2023-03-10T16:45:49.248Z,11.11
2023-03-10T16:48:17.136Z,11.02
2023-03-10T16:50:44.682Z,10.95
2023-03-10T16:53:11.098Z,10.89
2023-03-10T16:55:38.182Z,10.88
2023-03-10T16:58:05.436Z,10.88
2023-03-10T17:00:32.024Z,10.87
2023-03-10T17:02:58.494Z,10.84
2023-03-10T17:05:25.070Z,10.81
2023-03-10T17:07:55.944Z,10.77
2023-03-10T17:10:22.818Z,10.74
2023-03-10T17:12:49.310Z,10.70
2023-03-10T17:15:15.777Z,10.66
2023-03-10T17:17:42.377Z,10.61
2023-03-10T17:20:09.124Z,10.55
2023-03-10T17:22:37.800Z,10.53
2023-03-10T17:25:05.343Z,10.49
2023-03-10T17:27:31.711Z,10.45
2023-03-10T17:29:58.130Z,10.40
2023-03-10T17:32:24.606Z,10.34
2023-03-10T17:34:51.061Z,10.36
2023-03-10T17:37:18.076Z,10.41
2023-03-10T17:39:44.736Z,10.47
2023-03-10T17:42:11.184Z,10.50
2023-03-10T17:44:38.188Z,10.52
2023-03-10T17:47:05.970Z,10.53
2023-03-10T17:49:32.555Z,10.52
2023-03-10T17:51:59.213Z,10.51
2023-03-10T17:54:25.837Z,10.51
2023-03-10T17:56:52.448Z,10.50
2023-03-10T17:59:18.923Z,10.47
2023-03-10T18:01:46.486Z,10.46
2023-03-10T18:04:13.270Z,10.43
2023-03-10T18:06:39.714Z,10.41
2023-03-10T18:09:07.313Z,10.38
2023-03-10T18:11:34.038Z,10.35
2023-03-10T18:14:03.072Z,10.31
2023-03-10T18:16:31.916Z,10.27
2023-03-10T18:18:58.604Z,10.22
2023-03-10T18:21:25.516Z,10.19
2023-03-10T18:23:53.132Z,10.15
2023-03-10T18:26:21.272Z,10.14
2023-03-10T18:28:47.738Z,10.11
2023-03-10T18:31:33.063Z,10.07
2023-03-10T18:34:00.062Z,10.06
2023-03-10T18:36:28.196Z,10.06
2023-03-10T18:38:55.866Z,10.05
2023-03-10T18:41:24.908Z,10.05
2023-03-10T18:43:51.718Z,10.05
2023-03-10T18:46:18.789Z,10.03
2023-03-10T18:48:45.640Z,10.03
2023-03-10T18:51:13.357Z,10.00
2023-03-10T18:53:42.958Z,9.95
2023-03-10T18:56:10.235Z,9.91
2023-03-10T18:58:36.650Z,9.87
2023-03-10T19:01:03.171Z,9.84
2023-03-10T19:03:30.194Z,9.82
2023-03-10T19:05:56.618Z,9.77
2023-03-10T19:08:23.196Z,9.74
2023-03-10T19:10:56.550Z,9.71
2023-03-10T19:13:24.305Z,9.68
2023-03-10T19:15:50.878Z,9.66
2023-03-10T19:18:17.755Z,9.64
2023-03-10T19:20:44.448Z,9.59
2023-03-10T19:23:12.702Z,9.56
2023-03-10T19:25:39.231Z,9.53
2023-03-10T19:28:05.796Z,9.51
2023-03-10T19:30:32.347Z,9.47
2023-03-10T19:32:58.914Z,9.45
2023-03-10T19:35:25.777Z,9.42
2023-03-10T19:37:52.323Z,9.38
2023-03-10T19:40:19.950Z,9.36
2023-03-10T19:42:46.697Z,9.34
2023-03-10T19:45:15.165Z,9.33
2023-03-10T19:47:42.029Z,9.30
2023-03-10T19:50:10.146Z,9.26
2023-03-10T19:52:46.811Z,9.21
2023-03-10T19:55:14.451Z,9.18
2023-03-10T19:57:40.884Z,9.13
2023-03-10T20:00:07.735Z,9.09
2023-03-10T20:02:34.208Z,9.05
2023-03-10T20:05:00.612Z,9.01
2023-03-10T20:07:26.946Z,8.97
2023-03-10T20:09:53.322Z,8.93
2023-03-10T20:12:19.641Z,8.90
2023-03-10T20:14:46.099Z,8.86
2023-03-10T20:17:12.407Z,8.82
2023-03-10T20:19:39.602Z,8.77
2023-03-10T20:22:05.967Z,8.71
2023-03-10T20:24:32.323Z,8.67
2023-03-10T20:26:58.673Z,8.62
2023-03-10T20:29:25.132Z,8.56
2023-03-10T20:31:51.518Z,8.49
2023-03-10T20:34:18.401Z,8.41
2023-03-10T20:36:44.806Z,8.35
2023-03-10T20:39:11.136Z,8.29
2023-03-10T20:41:37.624Z,8.23
2023-03-10T20:44:04.071Z,8.18
2023-03-10T20:46:30.406Z,8.14
2023-03-10T20:48:56.828Z,8.10
2023-03-10T20:51:23.746Z,8.07
2023-03-10T20:53:50.039Z,8.05
2023-03-10T20:56:16.774Z,8.02
2023-03-10T20:58:43.169Z,8.00
2023-03-10T21:01:17.556Z,7.99
2023-03-10T21:03:44.189Z,7.98
2023-03-10T21:06:10.525Z,7.97
2023-03-10T21:08:36.854Z,7.97
2023-03-10T21:11:04.369Z,7.96
2023-03-10T21:13:30.834Z,7.96
2023-03-10T21:16:01.484Z,7.96
2023-03-10T21:18:29.085Z,7.96
2023-03-10T21:20:55.489Z,7.96
2023-03-10T21:23:21.847Z,7.96
2023-03-10T21:25:49.370Z,7.95
2023-03-10T21:28:15.636Z,7.92
2023-03-10T21:30:42.040Z,7.92
2023-03-10T21:33:08.369Z,7.90
2023-03-10T21:35:34.681Z,7.87
2023-03-10T21:38:01.007Z,7.87
2023-03-10T21:40:27.461Z,7.87
2023-03-10T21:42:53.801Z,7.87
2023-03-10T21:45:21.696Z,7.88
2023-03-10T21:47:48.246Z,7.88
2023-03-10T21:50:15.195Z,7.89
2023-03-10T21:52:41.644Z,7.90
2023-03-10T21:55:12.255Z,7.90
2023-03-10T21:57:38.597Z,7.91
2023-03-10T22:00:05.736Z,7.91
2023-03-10T22:02:36.153Z,7.92
2023-03-10T22:05:03.099Z,7.93
2023-03-10T22:07:29.449Z,7.95
2023-03-10T22:09:55.816Z,7.95
2023-03-10T22:12:22.141Z,7.94
2023-03-10T22:14:48.504Z,7.93
2023-03-10T22:17:14.923Z,7.90
2023-03-10T22:19:41.269Z,7.87
2023-03-10T22:22:07.625Z,7.84
2023-03-10T22:24:33.941Z,7.83
2023-03-10T22:27:00.197Z,7.82
2023-03-10T22:29:26.477Z,7.81
2023-03-10T22:31:52.790Z,7.80
2023-03-10T22:34:19.147Z,7.79
2023-03-10T22:36:45.435Z,7.80
2023-03-10T22:39:11.710Z,7.79
2023-03-10T22:41:38.790Z,7.78
2023-03-10T22:44:05.237Z,7.78
2023-03-10T22:46:31.576Z,7.79
2023-03-10T22:48:58.471Z,7.79
2023-03-10T22:51:24.780Z,7.79
2023-03-10T22:53:51.328Z,7.79
2023-03-10T22:56:20.092Z,7.79
2023-03-10T22:58:46.396Z,7.78
2023-03-10T23:01:15.244Z,7.78
2023-03-10T23:03:41.607Z,7.79
2023-03-10T23:06:08.009Z,7.80
2023-03-10T23:08:34.561Z,7.81
2023-03-10T23:11:00.780Z,7.82
2023-03-10T23:13:27.094Z,7.80
2023-03-10T23:15:53.506Z,7.77
2023-03-10T23:18:19.818Z,7.73
2023-03-10T23:20:46.911Z,7.66
2023-03-10T23:23:13.547Z,7.62
2023-03-10T23:25:41.691Z,7.55
2023-03-10T23:28:09.746Z,7.49
2023-03-10T23:30:37.786Z,7.43
2023-03-10T23:33:04.230Z,7.39
2023-03-10T23:35:31.569Z,7.35
2023-03-10T23:37:58.568Z,7.29
2023-03-10T23:40:25.536Z,7.24
2023-03-10T23:42:52.655Z,7.17
2023-03-10T23:45:20.458Z,7.13
2023-03-10T23:47:47.315Z,7.08
2023-03-10T23:50:16.143Z,7.04
2023-03-10T23:52:42.916Z,6.99
2023-03-10T23:55:12.287Z,6.96
2023-03-10T23:57:38.524Z,6.95
